Time;durP1;ratioP1;P1;durP2;ratioP2;P2;SDS_P1;SDS_P2;PMS_P1;PMS_P2;Temp;Humidity;BMP_temperature;BMP_pressure;BME280_temperature;BME280_humidity;BME280_pressure;Samples;Min_cycle;Max_cycle;Signal;HPM_P1;HPM_P2
2022/11/16 06:00:33;;;;;;;2.50;2.30;;;12.30;97.20;;;;;;1687247;29;20204;-68
2022/11/16 06:01:23;;;;;;;2.92;2.38;;;12.30;97.20;;;;;;1687264;29;20204;-68
2022/11/16 06:02:15;;;;;;;3.03;2.43;;;12.30;97.20;;;;;;1687565;29;20204;-68
2022/11/16 06:03:06;;;;;;;3.50;2.40;;;12.30;97.20;;;;;;1687526;29;20670;-68
2022/11/16 06:03:59;;;;;;;3.10;2.80;;;12.30;97.20;;;;;;1687568;29;20691;-68
2022/11/16 06:04:50;;;;;;;2.60;2.40;;;12.30;97.20;;;;;;1687517;29;20232;-69
2022/11/16 06:05:42;;;;;;;3.03;2.83;;;12.30;97.20;;;;;;1687601;29;20660;-69
2022/11/16 06:06:32;;;;;;;3.25;3.00;;;12.30;97.20;;;;;;1687595;29;20495;-68
2022/11/16 06:07:24;;;;;;;4.13;2.60;;;12.30;97.20;;;;;;1687265;29;20260;-68
2022/11/16 06:08:15;;;;;;;3.20;3.00;;;12.30;97.20;;;;;;1687517;29;20200;-69
2022/11/16 06:09:07;;;;;;;2.90;2.70;;;12.30;97.20;;;;;;1687127;29;20232;-69
2022/11/16 06:09:58;;;;;;;2.83;2.60;;;12.30;97.20;;;;;;1688768;29;20211;-68
2022/11/16 06:10:50;;;;;;;3.00;2.70;;;12.30;97.20;;;;;;1688395;29;20248;-68
2022/11/16 06:11:40;;;;;;;2.90;2.70;;;12.30;97.20;;;;;;1688688;29;20213;-69
2022/11/16 06:12:32;;;;;;;3.10;2.80;;;12.30;97.20;;;;;;1688696;29;20207;-68
2022/11/16 06:13:23;;;;;;;2.83;2.60;;;12.30;97.20;;;;;;1688763;29;20706;-68
2022/11/16 06:14:14;;;;;;;2.50;2.30;;;12.30;97.20;;;;;;1688801;29;20677;-68
2022/11/16 06:15:06;;;;;;;3.15;2.85;;;12.30;97.20;;;;;;1688670;29;20208;-68
2022/11/16 06:16:00;;;;;;;4.28;3.15;;;12.30;97.20;;;;;;1688739;29;20215;-68
2022/11/16 06:16:50;;;;;;;2.95;2.75;;;12.30;97.20;;;;;;1688370;29;21029;-68
2022/11/16 06:17:42;;;;;;;2.67;2.47;;;12.40;97.20;;;;;;1688454;29;20685;-69
2022/11/16 06:18:37;;;;;;;2.97;2.75;;;12.40;97.20;;;;;;1688719;29;20671;-69
2022/11/16 06:19:29;;;;;;;2.70;2.40;;;12.30;97.20;;;;;;1688707;29;20686;-68
2022/11/16 06:20:20;;;;;;;3.45;3.15;;;12.30;97.20;;;;;;1688371;29;20221;-69
2022/11/16 06:21:13;;;;;;;2.90;2.70;;;12.30;97.20;;;;;;1688626;29;20211;-68
2022/11/16 06:22:04;;;;;;;3.58;2.70;;;12.30;97.20;;;;;;1688627;29;20682;-68
2022/11/16 06:22:56;;;;;;;2.70;2.50;;;12.30;97.20;;;;;;1688735;29;20821;-68
2022/11/16 06:23:47;;;;;;;2.65;2.45;;;12.30;97.20;;;;;;1688623;29;20208;-68
2022/11/16 06:24:39;;;;;;;2.88;2.67;;;12.30;97.20;;;;;;1688695;29;20204;-68
2022/11/16 06:25:30;;;;;;;4.55;3.25;;;12.30;97.20;;;;;;1688344;29;20216;-69
2022/11/16 06:26:21;;;;;;;3.17;2.80;;;12.30;97.20;;;;;;1688625;29;20192;-68
2022/11/16 06:27:12;;;;;;;3.08;2.53;;;12.20;97.20;;;;;;1688616;29;20205;-68
2022/11/16 06:28:04;;;;;;;2.70;2.50;;;12.20;97.20;;;;;;1688663;29;20200;-68
2022/11/16 06:28:55;;;;;;;2.60;2.40;;;12.20;97.20;;;;;;1688554;29;20209;-68
2022/11/16 06:29:46;;;;;;;3.50;2.93;;;12.20;97.20;;;;;;1688395;29;20200;-68
2022/11/16 06:30:39;;;;;;;2.92;2.72;;;12.20;97.20;;;;;;1688216;29;20236;-68
2022/11/16 06:31:32;;;;;;;2.72;2.50;;;12.20;97.20;;;;;;1688550;29;20578;-68
2022/11/16 06:32:23;;;;;;;3.28;3.08;;;12.20;97.20;;;;;;1688644;29;20240;-68
2022/11/16 06:33:14;;;;;;;2.37;2.27;;;12.20;97.20;;;;;;1688668;29;20211;-68
2022/11/16 06:34:05;;;;;;;3.15;2.95;;;12.20;97.20;;;;;;1688594;29;20215;-68
2022/11/16 06:34:57;;;;;;;3.33;2.67;;;12.20;97.20;;;;;;1688715;29;20214;-68
2022/11/16 06:35:48;;;;;;;2.95;2.70;;;12.20;97.20;;;;;;1688109;29;20204;-68
2022/11/16 06:36:39;;;;;;;3.13;2.93;;;12.30;97.20;;;;;;1688617;29;20211;-68
2022/11/16 06:37:30;;;;;;;3.25;2.95;;;12.20;97.20;;;;;;1688634;29;20242;-68
2022/11/16 06:38:22;;;;;;;3.17;2.97;;;12.30;97.20;;;;;;1688585;29;20197;-68
2022/11/16 06:39:13;;;;;;;4.57;4.10;;;12.30;97.20;;;;;;1688518;29;20208;-68
2022/11/16 06:40:06;;;;;;;3.53;3.23;;;12.30;97.20;;;;;;1688279;29;20236;-68
2022/11/16 06:40:57;;;;;;;3.60;3.40;;;12.30;97.20;;;;;;1688343;29;20495;-68
2022/11/16 06:41:49;;;;;;;3.80;3.50;;;12.30;97.20;;;;;;1688443;29;20250;-67
2022/11/16 06:42:40;;;;;;;3.30;3.00;;;12.30;97.20;;;;;;1688566;29;20212;-68
2022/11/16 06:43:32;;;;;;;3.10;2.90;;;12.30;97.20;;;;;;1688548;29;20208;-68
2022/11/16 06:44:23;;;;;;;3.25;3.00;;;12.30;97.20;;;;;;1688461;29;20212;-73
2022/11/16 06:45:14;;;;;;;3.43;3.13;;;12.30;97.20;;;;;;1688587;29;20200;-67
2022/11/16 06:46:05;;;;;;;3.20;3.00;;;12.30;97.20;;;;;;1688246;29;20558;-67
2022/11/16 06:46:59;;;;;;;3.23;3.03;;;12.30;97.20;;;;;;1688511;29;20582;-68
2022/11/16 06:47:49;;;;;;;3.30;3.10;;;12.30;97.20;;;;;;1688375;29;20707;-67
2022/11/16 06:48:41;;;;;;;2.90;2.70;;;12.30;97.20;;;;;;1688395;29;20667;-67
2022/11/16 06:49:33;;;;;;;3.47;3.28;;;12.30;97.20;;;;;;1688313;29;20652;-68
2022/11/16 06:50:24;;;;;;;3.10;2.90;;;12.30;97.20;;;;;;1688096;29;20675;-68
2022/11/16 06:51:15;;;;;;;3.42;3.13;;;12.30;97.20;;;;;;1687917;29;20205;-69
2022/11/16 06:52:07;;;;;;;3.30;2.90;;;12.30;97.20;;;;;;1688279;29;20200;-68
2022/11/16 06:52:59;;;;;;;3.83;3.10;;;12.30;97.20;;;;;;1688463;29;20204;-68
2022/11/16 06:53:51;;;;;;;2.88;2.67;;;12.30;97.20;;;;;;1688510;29;20200;-69
2022/11/16 06:54:42;;;;;;;3.20;2.90;;;12.30;97.20;;;;;;1688513;29;20214;-68
2022/11/16 06:55:33;;;;;;;3.03;2.73;;;12.30;97.20;;;;;;1688543;29;20298;-68
2022/11/16 06:56:24;;;;;;;2.67;2.47;;;12.30;97.20;;;;;;1688530;29;20212;-68
2022/11/16 06:57:16;;;;;;;3.70;3.10;;;12.30;97.20;;;;;;1688487;29;20204;-68
2022/11/16 06:58:06;;;;;;;3.38;2.92;;;12.40;97.20;;;;;;1688494;29;20215;-68
2022/11/16 06:58:58;;;;;;;4.47;3.00;;;12.40;97.20;;;;;;1688306;29;20211;-69
2022/11/16 06:59:49;;;;;;;3.17;2.95;;;12.40;97.20;;;;;;1688275;29;20201;-68
2022/11/16 07:00:40;;;;;;;2.53;2.33;;;12.40;97.20;;;;;;1688156;29;20238;-68
2022/11/16 07:01:31;;;;;;;4.18;2.90;;;12.40;97.20;;;;;;1688386;29;20215;-68
2022/11/16 07:02:24;;;;;;;14.20;3.43;;;12.40;97.20;;;;;;1688225;29;20674;-68
2022/11/16 07:03:15;;;;;;;3.95;3.10;;;12.40;97.20;;;;;;1688427;29;20235;-68
2022/11/16 07:04:10;;;;;;;3.17;2.97;;;12.40;97.20;;;;;;1688416;29;20212;-68
2022/11/16 07:05:01;;;;;;;2.60;2.40;;;12.40;97.20;;;;;;1688447;29;20208;-68
2022/11/16 07:05:54;;;;;;;3.20;3.00;;;12.40;97.20;;;;;;1688199;29;20204;-68
2022/11/16 07:06:44;;;;;;;3.28;3.00;;;12.40;97.20;;;;;;1688441;29;20208;-68
2022/11/16 07:07:36;;;;;;;3.33;2.90;;;12.40;97.20;;;;;;1688304;29;20213;-67
2022/11/16 07:08:27;;;;;;;4.38;3.17;;;12.40;97.20;;;;;;1688409;29;20884;-68
2022/11/16 07:09:18;;;;;;;3.17;2.93;;;12.40;97.20;;;;;;1688377;29;20663;-68
2022/11/16 07:10:09;;;;;;;2.45;2.25;;;12.40;97.20;;;;;;1688062;29;20212;-68
2022/11/16 07:11:03;;;;;;;2.90;2.70;;;12.40;97.20;;;;;;1687964;29;20271;-68
2022/11/16 07:11:54;;;;;;;2.53;2.30;;;12.40;97.20;;;;;;1688345;29;20209;-68
2022/11/16 07:12:46;;;;;;;2.90;2.70;;;12.40;97.20;;;;;;1688408;29;20207;-68
2022/11/16 07:13:37;;;;;;;3.95;2.72;;;12.40;97.20;;;;;;1688438;29;20209;-68
2022/11/16 07:14:29;;;;;;;2.75;2.55;;;12.40;97.20;;;;;;1688408;29;20212;-68
2022/11/16 07:15:20;;;;;;;2.72;2.33;;;12.30;97.20;;;;;;1688351;29;20205;-67
2022/11/16 07:16:12;;;;;;;3.10;2.75;;;12.30;97.20;;;;;;1687781;29;20656;-67
2022/11/16 07:17:03;;;;;;;3.08;2.78;;;12.30;97.20;;;;;;1687819;29;20201;-67
2022/11/16 07:17:56;;;;;;;2.63;2.43;;;12.30;97.20;;;;;;1687903;29;20197;-67
2022/11/16 07:18:47;;;;;;;2.92;2.63;;;12.30;97.20;;;;;;1688316;29;20211;-67
2022/11/16 07:19:38;;;;;;;2.50;2.30;;;12.30;97.20;;;;;;1688385;29;20211;-67
2022/11/16 07:20:29;;;;;;;4.50;2.60;;;12.30;97.20;;;;;;1687148;29;20279;-67
2022/11/16 07:21:21;;;;;;;2.80;2.50;;;12.30;97.20;;;;;;1686215;29;20201;-67
2022/11/16 07:22:12;;;;;;;2.30;2.10;;;12.30;97.20;;;;;;1688197;29;20877;-68
2022/11/16 07:23:04;;;;;;;2.80;2.60;;;12.30;97.20;;;;;;1688240;29;20193;-68
2022/11/16 07:23:55;;;;;;;3.00;2.70;;;12.30;97.20;;;;;;1688304;29;20204;-68
2022/11/16 07:24:46;;;;;;;3.87;2.40;;;12.30;97.20;;;;;;1684163;29;20212;-67
2022/11/16 07:25:37;;;;;;;2.20;2.00;;;12.30;97.20;;;;;;1686710;29;20208;-67
2022/11/16 07:26:30;;;;;;;3.23;2.10;;;12.30;97.20;;;;;;1687592;29;20216;-67
2022/11/16 07:27:22;;;;;;;2.42;2.20;;;12.30;97.20;;;;;;1687577;29;20539;-68
2022/11/16 07:28:13;;;;;;;1.90;1.70;;;12.30;97.20;;;;;;1687897;29;20197;-68
2022/11/16 07:29:04;;;;;;;2.65;1.90;;;12.30;97.20;;;;;;1687931;29;20204;-67
2022/11/16 07:29:56;;;;;;;1.90;1.70;;;12.30;97.20;;;;;;1687894;29;20221;-69
2022/11/16 07:30:47;;;;;;;1.80;1.70;;;12.30;97.20;;;;;;1686975;29;20236;-67
2022/11/16 07:31:39;;;;;;;2.17;1.90;;;12.30;97.20;;;;;;1687895;29;20204;-68
2022/11/16 07:32:30;;;;;;;1.55;1.40;;;12.30;97.20;;;;;;1687891;29;20448;-68
2022/11/16 07:33:23;;;;;;;1.67;1.57;;;12.30;97.20;;;;;;1687451;29;20222;-68
2022/11/16 07:34:14;;;;;;;1.58;1.45;;;12.30;97.20;;;;;;1693332;29;20218;-67
2022/11/16 07:35:06;;;;;;;1.33;1.20;;;12.30;97.20;;;;;;1691603;29;20251;-67
2022/11/16 07:36:00;;;;;;;1.48;1.33;;;12.20;97.20;;;;;;1688037;29;20204;-67
2022/11/16 07:36:51;;;;;;;1.40;1.30;;;12.20;97.20;;;;;;1687628;29;20667;-67
2022/11/16 07:37:42;;;;;;;1.17;1.08;;;12.20;97.20;;;;;;1687950;29;20205;-66
2022/11/16 07:38:34;;;;;;;2.22;1.65;;;12.30;97.20;;;;;;1688066;29;20209;-67
2022/11/16 07:39:25;;;;;;;2.40;1.25;;;12.30;97.20;;;;;;1688030;29;20208;-67
2022/11/16 07:40:17;;;;;;;1.30;1.20;;;12.30;97.20;;;;;;1687235;29;20205;-67
2022/11/16 07:41:10;;;;;;;2.65;1.77;;;12.30;97.20;;;;;;1681480;29;20220;-67
2022/11/16 07:42:01;;;;;;;2.67;1.65;;;12.30;97.20;;;;;;1681390;29;20257;-66
2022/11/16 07:42:53;;;;;;;1.75;1.00;;;12.30;97.20;;;;;;1681413;29;20216;-67
2022/11/16 07:43:44;;;;;;;2.40;1.38;;;12.30;97.20;;;;;;1687592;29;20215;-67
2022/11/16 07:44:36;;;;;;;1.17;1.05;;;12.30;97.20;;;;;;1691841;29;20226;-67
2022/11/16 07:45:27;;;;;;;1.48;1.30;;;12.30;97.20;;;;;;1687758;29;20201;-67
2022/11/16 07:46:22;;;;;;;1.10;1.00;;;12.30;97.20;;;;;;1687925;29;20572;-67
2022/11/16 07:47:12;;;;;;;1.25;1.15;;;12.30;97.20;;;;;;1687680;29;20227;-67
2022/11/16 07:48:05;;;;;;;1.20;1.10;;;12.30;97.20;;;;;;1687835;29;20236;-67
2022/11/16 07:48:57;;;;;;;1.58;1.23;;;12.30;97.20;;;;;;1687843;29;20209;-67
2022/11/16 07:49:49;;;;;;;1.30;1.20;;;12.30;97.20;;;;;;1687821;29;20335;-67
2022/11/16 07:50:39;;;;;;;1.40;1.20;;;12.40;97.20;;;;;;1687043;29;20232;-67
2022/11/16 07:51:32;;;;;;;1.53;1.43;;;12.40;97.20;;;;;;1687775;29;20235;-67
2022/11/16 07:52:22;;;;;;;2.00;1.40;;;12.40;97.20;;;;;;1687777;29;20216;-67
2022/11/16 07:53:14;;;;;;;3.20;2.67;;;12.40;97.20;;;;;;1687409;29;20237;-66
2022/11/16 07:54:05;;;;;;;5.70;3.72;;;12.30;97.20;;;;;;1692374;29;20211;-67
2022/11/16 07:54:57;;;;;;;3.60;2.70;;;12.40;97.20;;;;;;1694375;29;20208;-66
2022/11/16 07:55:51;;;;;;;6.55;3.40;;;12.40;97.20;;;;;;1694315;29;20222;-67
2022/11/16 07:56:43;;;;;;;3.90;3.28;;;12.40;97.20;;;;;;1694261;29;20204;-67
2022/11/16 07:57:34;;;;;;;3.60;2.28;;;12.40;97.20;;;;;;1694218;29;20595;-67
2022/11/16 07:58:27;;;;;;;2.50;2.30;;;12.40;97.20;;;;;;1694157;29;20230;-66
2022/11/16 07:59:17;;;;;;;1.98;1.88;;;12.40;97.20;;;;;;1694426;29;20207;-67
2022/11/16 08:00:10;;;;;;;2.80;1.97;;;12.40;97.20;;;;;;1693704;29;20204;-67
2022/11/16 08:01:04;;;;;;;1.13;1.02;;;12.40;97.20;;;;;;1688175;29;20227;-67
2022/11/16 08:01:57;;;;;;;2.28;1.70;;;12.40;97.20;;;;;;1687597;29;20201;-67
2022/11/16 08:02:48;;;;;;;2.25;2.00;;;12.40;97.20;;;;;;1687828;29;20217;-67
2022/11/16 08:03:41;;;;;;;2.30;1.80;;;12.50;97.20;;;;;;1688288;29;20235;-67
2022/11/16 08:04:33;;;;;;;2.03;1.50;;;12.50;97.20;;;;;;1691951;29;20693;-67
2022/11/16 08:05:25;;;;;;;1.65;1.30;;;12.50;97.20;;;;;;1687708;29;20223;-67
2022/11/16 08:06:18;;;;;;;1.40;1.23;;;12.50;97.20;;;;;;1687800;29;20213;-67
2022/11/16 08:07:10;;;;;;;1.67;1.05;;;12.50;97.20;;;;;;1687453;29;20209;-67
2022/11/16 08:08:00;;;;;;;1.65;1.00;;;12.50;97.20;;;;;;1687693;29;20312;-67
2022/11/16 08:08:53;;;;;;;1.03;0.93;;;12.50;97.20;;;;;;1687798;29;20252;-67
2022/11/16 08:09:43;;;;;;;1.83;0.90;;;12.50;97.20;;;;;;1687657;29;20232;-67
2022/11/16 08:10:35;;;;;;;1.30;1.00;;;12.50;97.20;;;;;;1686871;29;20229;-67
2022/11/16 08:11:26;;;;;;;1.77;1.40;;;12.50;97.20;;;;;;1687634;29;20243;-67
2022/11/16 08:12:18;;;;;;;1.30;1.10;;;12.50;97.20;;;;;;1687788;29;20721;-67
2022/11/16 08:13:09;;;;;;;1.35;1.25;;;12.50;97.20;;;;;;1687205;29;20456;-67
2022/11/16 08:14:00;;;;;;;3.10;1.43;;;12.60;97.20;;;;;;1691477;29;20215;-66
2022/11/16 08:14:51;;;;;;;1.50;1.40;;;12.60;97.20;;;;;;1694323;29;20215;-67
2022/11/16 08:15:43;;;;;;;1.40;1.30;;;12.70;97.20;;;;;;1694039;29;20218;-67
2022/11/16 08:16:33;;;;;;;1.50;1.40;;;12.70;97.20;;;;;;1694115;29;20211;-67
2022/11/16 08:17:25;;;;;;;1.50;1.40;;;12.70;97.20;;;;;;1694108;29;20666;-67
2022/11/16 08:18:16;;;;;;;1.50;1.38;;;12.80;97.20;;;;;;1694155;29;20204;-67
2022/11/16 08:19:08;;;;;;;1.60;1.30;;;12.80;97.20;;;;;;1694084;29;20213;-67
2022/11/16 08:20:02;;;;;;;3.22;1.55;;;12.90;97.20;;;;;;1688949;29;20197;-67
2022/11/16 08:20:53;;;;;;;1.80;1.30;;;12.90;97.20;;;;;;1687394;29;20231;-67
2022/11/16 08:21:45;;;;;;;2.27;1.70;;;12.90;97.20;;;;;;1687191;29;20967;-67
2022/11/16 08:22:36;;;;;;;2.47;1.63;;;12.90;97.20;;;;;;1687636;29;20259;-67
2022/11/16 08:23:29;;;;;;;2.10;1.33;;;12.90;97.20;;;;;;1687125;29;20216;-67
2022/11/16 08:24:19;;;;;;;1.63;1.42;;;12.90;97.20;;;;;;1693483;29;20208;-66
2022/11/16 08:25:12;;;;;;;1.50;1.20;;;12.90;97.20;;;;;;1694144;29;20199;-66
2022/11/16 08:26:06;;;;;;;1.38;1.27;;;12.90;97.20;;;;;;1694155;29;20346;-67
2022/11/16 08:26:58;;;;;;;1.48;1.30;;;12.90;97.20;;;;;;1694110;29;20350;-66
2022/11/16 08:27:48;;;;;;;3.55;1.35;;;13.00;97.20;;;;;;1694014;29;20671;-66
2022/11/16 08:28:41;;;;;;;1.53;0.83;;;13.00;97.20;;;;;;1693742;29;20623;-66
2022/11/16 08:29:32;;;;;;;1.77;1.50;;;13.00;97.20;;;;;;1694176;29;20587;-66
2022/11/16 08:30:24;;;;;;;0.90;0.80;;;13.00;97.20;;;;;;1692918;29;20199;-66
2022/11/16 08:31:16;;;;;;;1.20;1.10;;;13.00;97.20;;;;;;1687414;29;20208;-67
2022/11/16 08:32:09;;;;;;;1.20;0.90;;;13.10;97.20;;;;;;1687463;29;20209;-67
2022/11/16 08:33:00;;;;;;;2.05;1.30;;;13.10;97.20;;;;;;1687035;29;20592;-66
2022/11/16 08:33:52;;;;;;;1.97;1.20;;;13.10;97.20;;;;;;1689745;29;20563;-67
2022/11/16 08:34:43;;;;;;;1.33;1.17;;;13.10;97.20;;;;;;1694024;29;20208;-66
2022/11/16 08:35:36;;;;;;;1.25;1.13;;;13.10;97.20;;;;;;1694215;29;20219;-66
2022/11/16 08:36:28;;;;;;;1.23;0.80;;;13.10;97.20;;;;;;1694075;29;20235;-68
2022/11/16 08:37:19;;;;;;;1.23;1.00;;;13.10;97.20;;;;;;1693844;29;20212;-66
2022/11/16 08:38:11;;;;;;;1.00;0.80;;;13.10;97.20;;;;;;1694112;29;20198;-67
2022/11/16 08:39:01;;;;;;;1.45;1.20;;;13.10;97.20;;;;;;1693903;29;20448;-67
2022/11/16 08:39:53;;;;;;;1.83;0.97;;;13.10;97.20;;;;;;1693929;29;20206;-66
2022/11/16 08:40:44;;;;;;;1.00;0.90;;;13.10;97.20;;;;;;1690328;29;20228;-66
2022/11/16 08:41:36;;;;;;;1.73;1.13;;;13.10;97.20;;;;;;1687608;29;20216;-68
2022/11/16 08:42:27;;;;;;;1.20;1.10;;;13.10;97.20;;;;;;1687480;29;20452;-67
2022/11/16 08:43:18;;;;;;;1.40;1.23;;;13.10;97.20;;;;;;1687157;29;20287;-67
2022/11/16 08:44:10;;;;;;;1.85;1.50;;;13.10;97.20;;;;;;1693109;29;20580;-67
2022/11/16 08:45:01;;;;;;;3.03;1.90;;;13.10;97.20;;;;;;1694069;29;20204;-67
2022/11/16 08:45:52;;;;;;;3.03;2.00;;;13.10;97.20;;;;;;1693924;29;20678;-67
2022/11/16 08:46:44;;;;;;;1.93;1.80;;;13.10;97.20;;;;;;1693828;29;20561;-67
2022/11/16 08:47:35;;;;;;;1.73;1.63;;;13.10;97.20;;;;;;1694184;29;20223;-67
2022/11/16 08:48:26;;;;;;;2.63;1.70;;;13.00;97.20;;;;;;1693959;29;20286;-67
2022/11/16 08:49:18;;;;;;;2.47;1.67;;;13.10;97.20;;;;;;1693962;29;20199;-67
2022/11/16 08:50:09;;;;;;;1.90;1.75;;;13.10;97.20;;;;;;1693470;29;20230;-67
2022/11/16 08:51:07;;;;;;;1.10;1.00;;;13.10;97.20;;;;;;1688869;29;20220;-67
2022/11/16 08:51:58;;;;;;;3.40;1.25;;;13.10;97.20;;;;;;1687425;29;20212;-67
2022/11/16 08:52:49;;;;;;;3.23;1.33;;;13.10;97.20;;;;;;1687390;29;20207;-67
2022/11/16 08:53:40;;;;;;;1.20;0.90;;;13.10;97.20;;;;;;1688373;29;20213;-67
2022/11/16 08:54:32;;;;;;;1.77;1.07;;;13.10;97.20;;;;;;1691795;29;20210;-67
2022/11/16 08:55:23;;;;;;;2.53;1.15;;;13.00;97.20;;;;;;1687410;29;20445;-67
2022/11/16 08:56:16;;;;;;;1.02;0.80;;;13.00;97.20;;;;;;1687493;29;20687;-67
2022/11/16 08:57:06;;;;;;;1.27;1.10;;;13.10;97.20;;;;;;1687277;29;20204;-67
2022/11/16 08:57:58;;;;;;;2.03;0.93;;;13.00;97.20;;;;;;1687412;29;20200;-67
2022/11/16 08:58:53;;;;;;;2.38;0.80;;;13.00;97.20;;;;;;1687351;29;20238;-66
2022/11/16 08:59:43;;;;;;;1.48;1.00;;;13.10;97.20;;;;;;1687518;29;20212;-67
2022/11/16 09:00:35;;;;;;;1.10;1.00;;;13.10;97.20;;;;;;1686752;29;20231;-66
2022/11/16 09:01:28;;;;;;;1.48;0.80;;;13.10;97.20;;;;;;1687295;29;20671;-67
2022/11/16 09:02:24;;;;;;;2.00;0.88;;;13.10;97.20;;;;;;1687543;29;20239;-67
2022/11/16 09:03:14;;;;;;;1.42;1.05;;;13.10;97.20;;;;;;1687063;29;20216;-66
2022/11/16 09:04:06;;;;;;;1.00;0.73;;;13.10;97.20;;;;;;1691914;29;20214;-67
2022/11/16 09:04:57;;;;;;;1.15;0.85;;;13.10;97.20;;;;;;1693914;29;20203;-67
2022/11/16 09:05:49;;;;;;;1.73;0.80;;;13.10;97.20;;;;;;1693907;29;20227;-67
2022/11/16 09:06:41;;;;;;;2.58;1.23;;;13.10;97.20;;;;;;1693792;29;20227;-67
2022/11/16 09:07:32;;;;;;;2.20;0.80;;;13.10;97.20;;;;;;1693911;29;20737;-67
2022/11/16 09:08:23;;;;;;;2.95;0.90;;;13.10;97.20;;;;;;1693934;29;20218;-67
2022/11/16 09:09:15;;;;;;;1.70;1.10;;;13.10;97.20;;;;;;1693980;29;20214;-67
2022/11/16 09:10:06;;;;;;;1.00;0.80;;;13.10;97.20;;;;;;1687704;29;20197;-66
2022/11/16 09:10:58;;;;;;;0.80;0.60;;;13.00;97.20;;;;;;1687352;29;20303;-67
2022/11/16 09:11:52;;;;;;;1.30;1.00;;;13.10;97.20;;;;;;1687227;29;20205;-67
2022/11/16 09:12:44;;;;;;;4.43;3.25;;;13.10;97.20;;;;;;1687470;29;20204;-67
2022/11/16 09:13:35;;;;;;;5.85;4.30;;;13.10;97.20;;;;;;1687572;29;20220;-67
2022/11/16 09:14:27;;;;;;;4.23;2.80;;;13.10;97.20;;;;;;1681010;29;20201;-67
2022/11/16 09:15:19;;;;;;;2.97;2.28;;;13.10;97.20;;;;;;1681039;29;21059;-67
2022/11/16 09:16:14;;;;;;;5.80;4.53;;;13.20;97.20;;;;;;1680983;29;20219;-67
2022/11/16 09:17:05;;;;;;;5.97;3.65;;;13.20;97.20;;;;;;1680741;29;20241;-67
2022/11/16 09:17:56;;;;;;;4.60;3.63;;;13.30;97.20;;;;;;1681089;29;20204;-67
2022/11/16 09:18:48;;;;;;;3.35;2.40;;;13.40;97.20;;;;;;1680886;29;20209;-67
2022/11/16 09:19:40;;;;;;;5.47;4.40;;;13.60;97.20;;;;;;1683185;29;20292;-67
2022/11/16 09:20:31;;;;;;;7.65;6.88;;;13.70;97.20;;;;;;1686831;29;20690;-67
2022/11/16 09:21:24;;;;;;;7.40;6.60;;;13.80;97.20;;;;;;1687359;29;20671;-67
2022/11/16 09:22:17;;;;;;;7.18;5.70;;;14.00;97.20;;;;;;1687482;29;20208;-67
2022/11/16 09:23:08;;;;;;;5.32;4.80;;;14.10;97.20;;;;;;1687114;29;20557;-67
2022/11/16 09:24:00;;;;;;;5.00;4.03;;;14.30;97.20;;;;;;1687145;29;20205;-67
2022/11/16 09:24:51;;;;;;;4.07;3.38;;;14.50;97.20;;;;;;1687356;29;20216;-67
2022/11/16 09:25:43;;;;;;;2.77;2.57;;;14.60;97.20;;;;;;1687374;29;20208;-67
2022/11/16 09:26:35;;;;;;;2.78;2.47;;;14.80;97.20;;;;;;1687269;29;20215;-67
2022/11/16 09:27:26;;;;;;;2.45;2.25;;;14.90;97.20;;;;;;1687252;29;20690;-67
2022/11/16 09:28:18;;;;;;;2.00;1.70;;;15.10;97.20;;;;;;1687348;29;20671;-67
2022/11/16 09:29:12;;;;;;;2.25;1.30;;;15.20;97.20;;;;;;1687302;29;20208;-67
2022/11/16 09:30:05;;;;;;;3.58;3.15;;;15.20;97.20;;;;;;1686582;29;20231;-67
2022/11/16 09:30:59;;;;;;;5.15;3.75;;;15.30;97.20;;;;;;1687104;29;20233;-67
2022/11/16 09:31:51;;;;;;;4.40;3.45;;;15.40;97.20;;;;;;1687188;29;20235;-67
2022/11/16 09:32:42;;;;;;;3.90;3.10;;;15.40;97.20;;;;;;1687353;29;20687;-67
2022/11/16 09:33:34;;;;;;;3.03;2.43;;;15.50;97.20;;;;;;1687451;29;20671;-67
2022/11/16 09:34:25;;;;;;;2.00;1.40;;;15.50;97.20;;;;;;1687348;29;20224;-67
2022/11/16 09:35:17;;;;;;;1.83;1.53;;;15.50;97.20;;;;;;1686861;29;20207;-67
2022/11/16 09:36:08;;;;;;;4.50;2.75;;;15.50;97.20;;;;;;1686485;29;20453;-67
2022/11/16 09:37:00;;;;;;;3.67;2.42;;;15.50;97.20;;;;;;1686766;29;20230;-67
2022/11/16 09:37:52;;;;;;;2.83;2.55;;;15.40;97.20;;;;;;1686805;29;20679;-67
2022/11/16 09:38:45;;;;;;;3.25;2.22;;;15.40;97.20;;;;;;1687082;29;20595;-68
2022/11/16 09:39:36;;;;;;;1.48;1.20;;;15.30;97.20;;;;;;1686874;29;20205;-67
2022/11/16 09:40:31;;;;;;;2.90;1.53;;;15.30;97.20;;;;;;1685936;29;20215;-67
2022/11/16 09:41:52;;;;;;;1.10;1.00;;;15.30;97.20;;;;;;1687510;29;20205;-67
2022/11/16 09:42:55;;;;;;;2.22;1.48;;;15.20;97.20;;;;;;1680959;29;20676;-67
2022/11/16 09:43:55;;;;;;;1.90;1.25;;;15.20;97.20;;;;;;1681147;29;20618;-67
2022/11/16 09:45:05;;;;;;;1.27;1.10;;;15.10;97.20;;;;;;1681430;29;20201;-67
2022/11/16 09:46:05;;;;;;;2.08;1.20;;;15.10;97.20;;;;;;1682175;29;20220;-67
2022/11/16 09:46:58;;;;;;;1.90;1.70;;;15.10;97.20;;;;;;1682224;29;20594;-67
2022/11/16 09:47:56;;;;;;;2.00;1.80;;;15.00;97.20;;;;;;1681724;29;20667;-67
2022/11/16 09:48:48;;;;;;;1.52;1.10;;;15.00;97.20;;;;;;1682441;29;20213;-67
2022/11/16 09:49:43;;;;;;;2.25;1.20;;;15.00;97.20;;;;;;1682418;29;20292;-67
2022/11/16 09:50:41;;;;;;;2.45;1.30;;;14.90;97.20;;;;;;1687634;29;20241;-67
2022/11/16 09:51:37;;;;;;;1.60;1.23;;;14.90;97.20;;;;;;1688804;29;20208;-67
2022/11/16 09:52:32;;;;;;;1.52;1.30;;;14.90;97.20;;;;;;1688666;29;20208;-67
2022/11/16 09:53:32;;;;;;;1.67;1.25;;;14.90;97.20;;;;;;1688561;29;20200;-67
2022/11/16 09:54:26;;;;;;;2.00;1.10;;;14.90;97.20;;;;;;1688893;29;20213;-67
2022/11/16 09:55:25;;;;;;;1.30;1.13;;;14.80;97.20;;;;;;1688945;29;20204;-67
2022/11/16 09:56:21;;;;;;;1.65;1.20;;;14.80;97.20;;;;;;1688861;29;20212;-67
2022/11/16 09:57:17;;;;;;;1.90;1.10;;;14.80;97.20;;;;;;1688861;29;20201;-67
2022/11/16 09:58:15;;;;;;;1.10;0.90;;;14.80;97.20;;;;;;1688854;29;20201;-66
2022/11/16 09:59:14;;;;;;;2.67;0.90;;;14.80;97.20;;;;;;1688184;29;20212;-67
2022/11/16 10:00:13;;;;;;;1.42;0.73;;;14.80;97.20;;;;;;1688270;29;20204;-67
2022/11/16 10:01:13;;;;;;;1.15;0.93;;;14.70;97.20;;;;;;1688854;29;20201;-67
2022/11/16 10:02:17;;;;;;;3.38;1.00;;;14.80;97.20;;;;;;1688515;29;20220;-67
2022/11/16 10:03:12;;;;;;;2.08;1.20;;;14.80;97.20;;;;;;1688810;29;20208;-67
2022/11/16 10:04:13;;;;;;;2.55;1.40;;;14.80;97.20;;;;;;1688763;29;20212;-67
2022/11/16 10:05:16;;;;;;;1.15;1.05;;;14.90;97.20;;;;;;1688838;29;20235;-67
2022/11/16 10:06:19;;;;;;;1.20;0.65;;;15.00;97.20;;;;;;1688801;29;20209;-67
2022/11/16 10:07:14;;;;;;;2.42;0.80;;;15.00;97.20;;;;;;1688743;29;20215;-67
2022/11/16 10:08:14;;;;;;;3.20;1.00;;;15.10;97.20;;;;;;1688705;29;20259;-67
2022/11/16 10:09:11;;;;;;;2.35;0.88;;;15.20;97.20;;;;;;1688769;29;20228;-67
2022/11/16 10:10:02;;;;;;;3.35;0.90;;;15.20;97.20;;;;;;1688199;29;20212;-67
2022/11/16 10:11:01;;;;;;;2.05;0.80;;;15.20;97.20;;;;;;1688243;29;20308;-67
2022/11/16 10:12:00;;;;;;;1.30;0.80;;;15.30;97.20;;;;;;1688696;29;20213;-67
2022/11/16 10:12:58;;;;;;;1.27;0.70;;;15.30;97.20;;;;;;1688525;29;20275;-67
2022/11/16 10:13:58;;;;;;;1.00;0.70;;;15.30;97.20;;;;;;1688837;29;20208;-66
2022/11/16 10:15:22;;;;;;;1.85;0.73;;;15.20;97.20;;;;;;1688803;29;20239;-67
2022/11/16 10:16:18;;;;;;;1.33;0.93;;;15.20;97.20;;;;;;1688711;29;20275;-67
2022/11/16 10:17:22;;;;;;;3.60;1.00;;;15.20;97.20;;;;;;1688666;29;20205;-67
2022/11/16 10:18:29;;;;;;;2.33;1.00;;;15.10;97.20;;;;;;1688751;29;20209;-67
2022/11/16 10:19:30;;;;;;;2.05;0.80;;;15.00;97.20;;;;;;1688760;29;20260;-67
2022/11/16 10:20:40;;;;;;;1.88;0.95;;;14.90;97.20;;;;;;1688131;29;20204;-67
2022/11/16 10:21:41;;;;;;;2.60;1.20;;;14.90;97.20;;;;;;1688655;29;20204;-67
2022/11/16 10:22:43;;;;;;;1.42;0.80;;;14.80;97.20;;;;;;1688715;29;20209;-67
2022/11/16 10:23:51;;;;;;;1.30;0.70;;;14.70;97.20;;;;;;1688684;29;20220;-67
2022/11/16 10:24:56;;;;;;;2.55;0.70;;;14.60;97.20;;;;;;1688734;29;20243;-67
2022/11/16 10:25:56;;;;;;;2.33;0.80;;;14.50;97.20;;;;;;1688708;29;20212;-67
2022/11/16 10:26:55;;;;;;;0.88;0.75;;;14.50;97.20;;;;;;1688692;29;20657;-67
2022/11/16 10:28:03;;;;;;;2.00;1.00;;;14.50;97.20;;;;;;1688736;29;20212;-67
2022/11/16 10:29:15;;;;;;;1.20;0.88;;;14.40;97.20;;;;;;1688737;29;20208;-67
2022/11/16 10:30:10;;;;;;;1.45;0.90;;;14.40;97.20;;;;;;1688126;29;20209;-67
2022/11/16 10:31:10;;;;;;;1.40;0.80;;;14.30;97.20;;;;;;1688367;29;20239;-67
2022/11/16 10:32:13;;;;;;;2.25;0.70;;;14.30;97.20;;;;;;1688285;29;20197;-66
2022/11/16 10:33:09;;;;;;;1.20;0.80;;;14.30;97.20;;;;;;1688142;29;20207;-67
2022/11/16 10:34:05;;;;;;;1.30;0.85;;;14.30;97.20;;;;;;1688715;29;20567;-67
2022/11/16 10:35:02;;;;;;;2.35;1.00;;;14.20;97.20;;;;;;1688633;29;20710;-67
2022/11/16 10:35:53;;;;;;;1.85;1.10;;;14.20;97.20;;;;;;1688667;29;20205;-67
2022/11/16 10:36:44;;;;;;;1.40;1.02;;;14.20;97.20;;;;;;1688550;29;20702;-67
2022/11/16 10:37:41;;;;;;;2.05;0.90;;;14.20;97.20;;;;;;1688658;29;20201;-67